Time;durP1;ratioP1;P1;durP2;ratioP2;P2;SDS_P1;SDS_P2;PMS_P1;PMS_P2;Temp;Humidity;BMP_temperature;BMP_pressure;BME280_temperature;BME280_humidity;BME280_pressure;Samples;Min_cycle;Max_cycle;Signal;HPM_P1;HPM_P2
2023/09/24 00:02:38;;;;;;;6.75;3.40;;;;;;;13.22;100.00;102173.66;5072337;28;20136;-65
2023/09/24 00:05:26;;;;;;;11.00;3.78;;;;;;;13.17;100.00;102179.88;5057072;28;20064;-66
2023/09/24 00:08:14;;;;;;;8.88;3.90;;;;;;;13.13;100.00;102184.22;5068696;28;20040;-66
2023/09/24 00:11:03;;;;;;;6.47;3.40;;;;;;;13.08;100.00;102184.13;5071873;28;20134;-66
2023/09/24 00:13:51;;;;;;;6.53;3.50;;;;;;;13.11;100.00;102178.16;5066047;28;20052;-66
2023/09/24 00:16:39;;;;;;;6.80;3.42;;;;;;;13.13;100.00;102189.69;5071431;28;20512;-66
2023/09/24 00:19:27;;;;;;;8.43;3.63;;;;;;;13.09;100.00;102196.75;5067294;28;20049;-65
2023/09/24 00:22:15;;;;;;;6.68;3.25;;;;;;;13.08;100.00;102196.97;5075678;28;20041;-66
2023/09/24 00:25:04;;;;;;;9.40;3.80;;;;;;;13.09;100.00;102196.75;5077279;28;20057;-68
2023/09/24 00:27:53;;;;;;;7.70;3.55;;;;;;;13.08;100.00;102199.72;5062407;28;20044;-66
2023/09/24 00:30:42;;;;;;;6.85;3.47;;;;;;;13.07;100.00;102198.88;5060935;28;20141;-66
2023/09/24 00:33:30;;;;;;;8.10;3.53;;;;;;;13.09;100.00;102202.22;5074581;28;20036;-67
2023/09/24 00:36:19;;;;;;;7.97;3.45;;;;;;;13.07;100.00;102196.16;5034386;28;20044;-67
2023/09/24 00:39:07;;;;;;;7.25;3.75;;;;;;;13.06;100.00;102197.25;5075296;28;20041;-66
2023/09/24 00:41:55;;;;;;;9.68;3.90;;;;;;;13.08;100.00;102199.72;5076439;28;20048;-66
2023/09/24 00:44:43;;;;;;;7.50;3.33;;;;;;;13.06;100.00;102196.41;5058768;28;20056;-67
2023/09/24 00:47:31;;;;;;;12.27;3.60;;;;;;;13.07;100.00;102198.88;5033496;28;20551;-66
2023/09/24 00:50:20;;;;;;;7.93;3.67;;;;;;;13.04;100.00;102193.94;5055569;28;20049;-66
2023/09/24 00:53:08;;;;;;;11.38;3.63;;;;;;;12.99;100.00;102199.31;5044493;28;20055;-67
2023/09/24 00:55:58;;;;;;;12.35;3.72;;;;;;;12.92;100.00;102204.16;5043904;28;20055;-66
2023/09/24 00:58:50;;;;;;;7.70;3.35;;;;;;;12.84;100.00;102199.91;5046750;28;20056;-66
2023/09/24 01:01:39;;;;;;;7.22;3.65;;;;;;;12.84;100.00;102219.03;5074703;28;20045;-66
2023/09/24 01:04:27;;;;;;;8.73;4.00;;;;;;;12.81;100.00;102221.47;5046448;28;20045;-66
2023/09/24 01:07:15;;;;;;;8.52;3.85;;;;;;;12.74;100.00;102211.50;5054693;28;20067;-66
2023/09/24 01:10:04;;;;;;;7.15;3.70;;;;;;;12.70;100.00;102210.34;5075394;28;20127;-66
2023/09/24 01:13:00;;;;;;;8.02;3.58;;;;;;;12.63;100.00;102208.84;5059668;28;20044;-65
2023/09/24 01:15:52;;;;;;;7.47;3.45;;;;;;;12.62;100.00;102208.00;5058974;28;20178;-66
2023/09/24 01:18:42;;;;;;;7.40;3.70;;;;;;;12.62;100.00;102205.28;5041199;28;20148;-67
2023/09/24 01:21:31;;;;;;;8.07;3.95;;;;;;;12.60;100.00;102206.59;5041806;28;20059;-66
2023/09/24 01:24:21;;;;;;;7.75;3.78;;;;;;;12.58;100.00;102212.34;5041493;28;20456;-66
2023/09/24 01:27:09;;;;;;;8.13;3.55;;;;;;;12.59;100.00;102214.00;5046323;28;20044;-67
2023/09/24 01:29:57;;;;;;;8.35;3.70;;;;;;;12.61;100.00;102214.56;5058678;28;20479;-66
2023/09/24 01:32:46;;;;;;;5.68;3.35;;;;;;;12.62;100.00;102213.47;5061282;28;20063;-66
2023/09/24 01:35:36;;;;;;;7.30;3.50;;;;;;;12.60;100.00;102210.16;5058574;28;20044;-66
2023/09/24 01:38:24;;;;;;;7.18;3.60;;;;;;;12.59;100.00;102211.25;5057505;28;20458;-66
2023/09/24 01:41:12;;;;;;;7.82;3.75;;;;;;;12.57;100.00;102206.03;5041626;28;20037;-66
2023/09/24 01:44:01;;;;;;;11.27;4.03;;;;;;;12.53;100.00;102195.81;5055660;28;20114;-67
2023/09/24 01:46:49;;;;;;;8.05;3.38;;;;;;;12.50;100.00;102193.59;5048575;28;20058;-66
2023/09/24 01:49:37;;;;;;;7.68;3.35;;;;;;;12.52;100.00;102199.66;5070628;28;20052;-65
2023/09/24 01:52:25;;;;;;;9.05;3.75;;;;;;;12.58;100.00;102195.94;5060779;28;20046;-66
2023/09/24 01:55:16;;;;;;;8.38;3.50;;;;;;;12.59;100.00;102203.06;5064318;28;20504;-67
2023/09/24 01:58:04;;;;;;;6.28;3.30;;;;;;;12.57;100.00;102199.72;5061150;28;20369;-67
2023/09/24 02:00:52;;;;;;;12.35;4.05;;;;;;;12.52;100.00;102197.75;5026719;28;20048;-67
2023/09/24 02:03:41;;;;;;;6.95;3.60;;;;;;;12.47;100.00;102196.84;5041395;28;20040;-66
2023/09/24 02:06:34;;;;;;;9.20;3.85;;;;;;;12.42;100.00;102202.22;5078131;28;20040;-66
2023/09/24 02:09:22;;;;;;;7.80;3.80;;;;;;;12.40;100.00;102194.25;5064166;28;20071;-66
2023/09/24 02:12:10;;;;;;;6.47;3.50;;;;;;;12.36;100.00;102193.06;5074881;28;20079;-66
2023/09/24 02:14:58;;;;;;;7.32;3.47;;;;;;;12.41;100.00;102201.38;5059230;28;20041;-65
2023/09/24 02:17:48;;;;;;;9.43;3.72;;;;;;;12.43;100.00;102204.69;5044570;28;20358;-66
2023/09/24 02:20:36;;;;;;;8.95;3.55;;;;;;;12.43;100.00;102215.63;5060008;28;20056;-66
2023/09/24 02:23:25;;;;;;;7.72;3.75;;;;;;;12.41;100.00;102217.78;5021733;28;20430;-67
2023/09/24 02:26:13;;;;;;;7.13;3.50;;;;;;;12.38;100.00;102217.44;5094176;28;20040;-66
2023/09/24 02:29:03;;;;;;;7.72;3.50;;;;;;;12.36;100.00;102221.25;5064471;28;20146;-66
2023/09/24 02:31:52;;;;;;;7.68;3.63;;;;;;;12.36;100.00;102224.00;5052401;28;20182;-66
2023/09/24 02:34:40;;;;;;;10.73;4.07;;;;;;;12.33;100.00;102226.38;5058192;28;20107;-67
2023/09/24 02:37:30;;;;;;;10.10;4.13;;;;;;;12.34;100.00;102226.13;5072885;28;20045;-66
2023/09/24 02:40:30;;;;;;;8.82;3.30;;;;;;;12.37;100.00;102227.56;5042962;28;20150;-66
2023/09/24 02:43:19;;;;;;;6.90;3.47;;;;;;;12.41;100.00;102227.88;5057420;28;20049;-66
2023/09/24 02:46:08;;;;;;;6.40;3.60;;;;;;;12.42;100.00;102226.81;5032027;28;20036;-67
2023/09/24 02:48:56;;;;;;;7.43;3.55;;;;;;;12.40;100.00;102227.06;5045882;28;20090;-67
2023/09/24 02:51:46;;;;;;;10.20;3.58;;;;;;;12.35;100.00;102235.97;5059171;28;20051;-67
2023/09/24 02:54:34;;;;;;;6.10;3.42;;;;;;;12.33;100.00;102235.41;5062929;28;20051;-66
2023/09/24 02:57:22;;;;;;;9.68;3.63;;;;;;;12.32;100.00;102230.19;5089151;28;20064;-67
2023/09/24 03:00:15;;;;;;;7.05;3.40;;;;;;;12.27;100.00;102230.94;5073019;28;20123;-66
2023/09/24 03:03:07;;;;;;;11.68;4.20;;;;;;;12.26;100.00;102226.50;5068452;28;20561;-66
2023/09/24 03:05:55;;;;;;;9.27;4.10;;;;;;;12.24;100.00;102227.84;5062476;28;20385;-66
2023/09/24 03:08:43;;;;;;;6.72;3.63;;;;;;;12.22;100.00;102222.63;5057218;28;20496;-66
2023/09/24 03:11:31;;;;;;;8.82;3.67;;;;;;;12.21;100.00;102233.78;5039239;28;20052;-67
2023/09/24 03:14:20;;;;;;;7.75;3.60;;;;;;;12.18;100.00;102240.59;5058487;28;20055;-66
2023/09/24 03:17:09;;;;;;;6.78;3.53;;;;;;;12.15;100.00;102241.06;5071487;28;20044;-66
2023/09/24 03:19:57;;;;;;;9.27;3.90;;;;;;;12.15;100.00;102236.44;5073391;28;20044;-66
2023/09/24 03:22:55;;;;;;;9.40;3.80;;;;;;;12.15;100.00;102243.81;5057739;28;20408;-66
2023/09/24 03:25:44;;;;;;;7.78;3.60;;;;;;;12.14;100.00;102244.88;5068404;28;20051;-65
2023/09/24 03:28:32;;;;;;;9.13;3.88;;;;;;;12.09;100.00;102248.31;5084793;28;20055;-66
2023/09/24 03:31:20;;;;;;;8.48;3.80;;;;;;;12.09;100.00;102250.22;5059040;28;20183;-65
2023/09/24 03:34:09;;;;;;;7.93;3.53;;;;;;;12.04;100.00;102255.59;5074117;28;20046;-66
2023/09/24 03:36:57;;;;;;;8.23;3.75;;;;;;;12.00;100.00;102252.53;5064317;28;20048;-66
2023/09/24 03:39:45;;;;;;;7.28;3.78;;;;;;;11.98;100.00;102262.03;5077704;28;20380;-67
2023/09/24 03:42:35;;;;;;;12.13;4.03;;;;;;;11.99;100.00;102259.06;5068223;28;20127;-66
2023/09/24 03:45:24;;;;;;;6.18;3.40;;;;;;;12.00;100.00;102257.16;5058017;28;20090;-66
2023/09/24 03:48:14;;;;;;;8.18;3.40;;;;;;;11.99;100.00;102260.97;5038371;28;20079;-66
2023/09/24 03:51:02;;;;;;;9.75;3.55;;;;;;;12.00;100.00;102265.34;5035598;28;20053;-66
2023/09/24 03:53:50;;;;;;;9.27;3.50;;;;;;;11.99;100.00;102266.44;5054244;28;20053;-66
2023/09/24 03:56:39;;;;;;;6.95;3.45;;;;;;;11.96;100.00;102265.00;5002743;28;20055;-67
2023/09/24 03:59:28;;;;;;;8.80;4.15;;;;;;;11.92;100.00;102261.91;5049862;28;20048;-66
2023/09/24 04:02:16;;;;;;;8.32;4.00;;;;;;;11.88;100.00;102263.50;5051076;28;20531;-66
2023/09/24 04:05:04;;;;;;;10.10;3.75;;;;;;;11.88;100.00;102271.69;5014927;28;20072;-66
2023/09/24 04:07:55;;;;;;;9.73;4.03;;;;;;;11.90;100.00;102279.63;5033657;28;20545;-67
2023/09/24 04:10:43;;;;;;;6.22;3.30;;;;;;;11.92;100.00;102278.31;5022130;28;20517;-67
2023/09/24 04:13:32;;;;;;;7.55;3.90;;;;;;;11.91;100.00;102279.38;5048414;28;20044;-66
2023/09/24 04:16:22;;;;;;;8.68;3.90;;;;;;;11.86;100.00;102282.00;5052097;28;20056;-68
2023/09/24 04:19:10;;;;;;;6.03;3.70;;;;;;;11.86;100.00;102287.44;5048421;28;20053;-67
2023/09/24 04:21:58;;;;;;;7.32;3.45;;;;;;;11.87;100.00;102289.13;5069002;28;20048;-67
2023/09/24 04:24:50;;;;;;;8.52;3.70;;;;;;;11.88;100.00;102285.34;5051316;28;20051;-67
2023/09/24 04:27:38;;;;;;;8.82;3.70;;;;;;;11.88;100.00;102288.06;5021443;28;20197;-66
2023/09/24 04:30:26;;;;;;;8.00;3.75;;;;;;;11.84;100.00;102300.50;5050903;28;20095;-66
2023/09/24 04:33:15;;;;;;;9.27;3.70;;;;;;;11.81;100.00;102295.53;5051485;28;20077;-67
2023/09/24 04:36:05;;;;;;;6.28;3.42;;;;;;;11.76;100.00;102291.84;5049344;28;20052;-65
2023/09/24 04:38:53;;;;;;;7.72;3.53;;;;;;;11.73;100.00;102295.88;4700007;28;9999694;-66
2023/09/24 04:41:43;;;;;;;7.90;3.65;;;;;;;11.73;100.00;102296.72;5033797;28;20209;-66
2023/09/24 04:44:31;;;;;;;9.25;4.20;;;;;;;11.74;100.00;102297.56;5043386;28;20049;-66
2023/09/24 04:47:19;;;;;;;7.03;3.78;;;;;;;11.73;100.00;102298.63;5026237;28;20513;-66
2023/09/24 04:50:11;;;;;;;9.40;3.88;;;;;;;11.72;100.00;102303.25;5025498;28;20055;-66
2023/09/24 04:52:59;;;;;;;8.38;3.95;;;;;;;11.64;100.00;102300.03;5054467;28;20059;-66
2023/09/24 04:55:47;;;;;;;8.50;4.00;;;;;;;11.61;100.00;102300.53;5052613;28;20095;-66
2023/09/24 04:58:36;;;;;;;8.80;3.75;;;;;;;11.59;100.00;102305.41;5052132;28;20049;-66
2023/09/24 05:01:24;;;;;;;9.60;4.13;;;;;;;11.60;100.00;102301.63;5054100;28;20271;-67
2023/09/24 05:04:12;;;;;;;7.60;3.88;;;;;;;11.62;100.00;102296.75;5055160;28;20123;-68
2023/09/24 05:07:00;;;;;;;6.95;3.20;;;;;;;11.63;100.00;102304.69;5041696;28;20515;-66
2023/09/24 05:09:50;;;;;;;7.40;3.38;;;;;;;11.63;100.00;102307.41;5042603;28;20048;-66
2023/09/24 05:12:38;;;;;;;7.95;3.42;;;;;;;11.62;100.00;102303.03;5057051;28;20111;-67
2023/09/24 05:15:26;;;;;;;6.97;3.33;;;;;;;11.60;100.00;102298.88;5056009;28;20411;-67
2023/09/24 05:18:14;;;;;;;8.32;3.72;;;;;;;11.59;100.00;102302.66;5056116;28;20047;-66
2023/09/24 05:21:03;;;;;;;5.88;3.10;;;;;;;11.55;100.00;102312.41;5083050;28;20040;-66
2023/09/24 05:23:51;;;;;;;6.18;3.35;;;;;;;11.49;100.00;102319.63;5076335;28;20812;-66
2023/09/24 05:26:40;;;;;;;8.88;3.65;;;;;;;11.50;100.00;102322.16;5068240;28;20574;-66
2023/09/24 05:29:28;;;;;;;9.77;3.53;;;;;;;11.51;100.00;102312.88;5064376;28;20056;-67
2023/09/24 05:32:16;;;;;;;7.25;3.50;;;;;;;11.51;100.00;102329.25;5037960;28;20138;-68
2023/09/24 05:35:05;;;;;;;9.90;3.67;;;;;;;11.51;100.00;102329.25;5050542;28;20736;-67
2023/09/24 05:37:53;;;;;;;6.57;3.60;;;;;;;11.50;100.00;102333.06;5054504;28;20041;-66
2023/09/24 05:40:41;;;;;;;6.50;3.50;;;;;;;11.52;100.00;102338.28;5057879;28;20064;-66
2023/09/24 05:43:29;;;;;;;8.05;3.78;;;;;;;11.55;100.00;102339.72;5043026;28;20048;-66
2023/09/24 05:46:17;;;;;;;8.93;3.85;;;;;;;11.56;100.00;102349.56;5071764;28;20186;-65
2023/09/24 05:49:05;;;;;;;9.82;3.40;;;;;;;11.57;100.00;102348.47;5072040;28;20058;-65
2023/09/24 05:51:54;;;;;;;8.10;3.55;;;;;;;11.56;100.00;102357.75;5028286;28;20206;-67
2023/09/24 05:54:42;;;;;;;6.78;3.70;;;;;;;11.57;100.00;102348.47;5036184;28;20159;-67
2023/09/24 05:57:30;;;;;;;9.93;3.67;;;;;;;11.56;100.00;102350.38;5069956;28;20053;-67
2023/09/24 06:00:19;;;;;;;8.40;3.50;;;;;;;11.58;100.00;102355.63;5029810;28;20052;-67
2023/09/24 06:03:07;;;;;;;7.63;3.65;;;;;;;11.60;100.00;102354.31;5071269;28;20171;-67
2023/09/24 06:05:55;;;;;;;6.15;3.28;;;;;;;11.62;100.00;102360.38;5070834;28;20057;-66
2023/09/24 06:08:44;;;;;;;5.78;3.42;;;;;;;11.63;100.00;102358.47;5043626;28;20148;-68
2023/09/24 06:11:32;;;;;;;8.23;3.30;;;;;;;11.63;100.00;102361.19;5039009;28;20634;-67
2023/09/24 06:14:20;;;;;;;8.68;3.40;;;;;;;11.63;100.00;102362.00;5061880;28;20135;-66
2023/09/24 06:17:08;;;;;;;7.75;3.78;;;;;;;11.63;100.00;102370.22;5056449;28;20052;-67
2023/09/24 06:19:56;;;;;;;9.15;3.47;;;;;;;11.64;100.00;102371.03;5079109;28;20133;-67
2023/09/24 06:22:52;;;;;;;7.22;3.60;;;;;;;11.64;100.00;102369.16;5078008;28;20078;-66
2023/09/24 06:25:40;;;;;;;9.07;3.80;;;;;;;11.63;100.00;102372.13;5055818;28;20487;-65
2023/09/24 06:28:28;;;;;;;9.00;3.95;;;;;;;11.65;100.00;102370.81;5042965;28;20143;-67
2023/09/24 06:31:16;;;;;;;6.57;3.60;;;;;;;11.67;100.00;102374.13;5057640;28;20536;-66
2023/09/24 06:34:04;;;;;;;8.98;3.55;;;;;;;11.70;100.00;102381.03;5069387;28;20139;-66
2023/09/24 06:36:52;;;;;;;7.90;3.60;;;;;;;11.73;100.00;102388.72;5049462;28;20463;-67
2023/09/24 06:39:42;;;;;;;8.73;3.92;;;;;;;11.71;100.00;102388.13;5044801;28;20052;-67
2023/09/24 06:42:30;;;;;;;8.65;3.83;;;;;;;11.72;100.00;102393.38;5039937;28;20098;-68
2023/09/24 06:45:18;;;;;;;8.45;3.67;;;;;;;11.70;100.00;102387.31;5041818;28;20036;-67
2023/09/24 06:48:06;;;;;;;7.05;4.07;;;;;;;11.62;100.00;102384.13;5040558;28;20572;-67
2023/09/24 06:51:09;;;;;;;8.88;3.90;;;;;;;11.59;100.00;102392.75;5074409;28;20703;-67
2023/09/24 06:53:57;;;;;;;9.88;4.30;;;;;;;11.60;100.00;102386.25;5037364;28;20078;-65
2023/09/24 06:56:45;;;;;;;9.75;4.30;;;;;;;11.57;100.00;102393.00;5058229;28;20114;-67
2023/09/24 06:59:33;;;;;;;14.73;4.57;;;;;;;11.56;100.00;102395.97;5080640;28;20499;-66
2023/09/24 07:02:22;;;;;;;10.05;4.18;;;;;;;11.58;100.00;102399.28;5075066;28;20047;-66
2023/09/24 07:05:10;;;;;;;9.45;3.80;;;;;;;11.56;100.00;102398.69;5075226;28;20037;-66
2023/09/24 07:07:58;;;;;;;10.90;4.10;;;;;;;11.59;100.00;102403.66;5054327;28;20055;-67
2023/09/24 07:10:55;;;;;;;10.18;4.38;;;;;;;11.62;100.00;102400.50;5055710;28;20478;-67
2023/09/24 07:13:43;;;;;;;13.00;4.55;;;;;;;11.66;100.00;102404.41;5054202;28;20412;-67
2023/09/24 07:16:31;;;;;;;8.07;4.15;;;;;;;11.70;100.00;102400.13;5067294;28;20060;-67
2023/09/24 07:19:20;;;;;;;10.13;4.03;;;;;;;11.70;100.00;102403.69;5055393;28;20551;-68
2023/09/24 07:22:08;;;;;;;10.52;4.38;;;;;;;11.67;100.00;102404.16;5053524;28;20171;-66
2023/09/24 07:24:56;;;;;;;11.68;4.20;;;;;;;11.69;100.00;102412.13;5068565;28;20046;-67
2023/09/24 07:27:44;;;;;;;10.02;4.10;;;;;;;11.73;100.00;102416.03;5053455;28;20056;-67
2023/09/24 07:30:34;;;;;;;8.65;4.07;;;;;;;11.79;100.00;102415.09;5069571;28;20048;-67
2023/09/24 07:33:26;;;;;;;9.82;4.03;;;;;;;11.85;100.00;102414.13;5044255;28;20051;-68
2023/09/24 07:36:15;;;;;;;10.07;3.95;;;;;;;11.89;100.00;102417.28;5085575;28;20052;-67
2023/09/24 07:39:19;;;;;;;8.80;3.95;;;;;;;11.92;100.00;102417.59;5077365;28;20036;-66
2023/09/24 07:42:08;;;;;;;11.82;3.95;;;;;;;11.94;100.00;102420.13;5066833;28;20083;-67
2023/09/24 07:44:56;;;;;;;10.02;4.32;;;;;;;11.97;100.00;102416.91;5072113;28;20045;-67
2023/09/24 07:47:44;;;;;;;9.70;3.97;;;;;;;11.98;100.00;102428.66;5063052;28;20044;-67
2023/09/24 07:50:33;;;;;;;10.20;4.00;;;;;;;12.03;100.00;102423.34;5091694;28;20178;-67
2023/09/24 07:53:22;;;;;;;9.20;4.45;;;;;;;12.10;100.00;102426.78;5058978;28;20080;-67
2023/09/24 07:56:10;;;;;;;10.13;4.30;;;;;;;12.13;100.00;102429.84;5057439;28;20045;-67
2023/09/24 07:58:58;;;;;;;11.73;4.45;;;;;;;12.15;100.00;102435.91;5082601;28;20055;-67
2023/09/24 08:01:46;;;;;;;11.30;4.45;;;;;;;12.18;100.00;102431.84;5063731;28;20510;-67
2023/09/24 08:04:34;;;;;;;8.93;4.30;;;;;;;12.22;100.00;102435.78;5072454;28;20048;-66
2023/09/24 08:07:23;;;;;;;11.70;4.32;;;;;;;12.26;100.00;102434.22;5072119;28;20052;-66
2023/09/24 08:10:11;;;;;;;10.73;4.25;;;;;;;12.27;100.00;102433.16;5087008;28;20042;-68
2023/09/24 08:13:01;;;;;;;8.50;4.10;;;;;;;12.29;100.00;102427.44;5087816;28;20511;-66
2023/09/24 08:15:50;;;;;;;12.07;4.35;;;;;;;12.32;100.00;102427.81;5058583;28;20102;-67
2023/09/24 08:18:38;;;;;;;10.60;4.40;;;;;;;12.35;100.00;102430.03;5072159;28;20334;-67
2023/09/24 08:21:26;;;;;;;10.88;4.40;;;;;;;12.40;100.00;102433.97;5057695;28;20132;-67
2023/09/24 08:24:14;;;;;;;10.48;4.60;;;;;;;12.44;100.00;102438.72;5057333;28;20115;-67
2023/09/24 08:27:03;;;;;;;13.13;4.93;;;;;;;12.46;100.00;102442.03;5071946;28;20048;-67
2023/09/24 08:29:53;;;;;;;9.10;4.05;;;;;;;12.51;100.00;102441.31;5076096;28;20044;-67
2023/09/24 08:32:41;;;;;;;9.45;4.50;;;;;;;12.55;100.00;102443.34;5067763;28;20144;-67
2023/09/24 08:35:30;;;;;;;10.30;4.38;;;;;;;12.61;100.00;102441.53;5071935;28;20040;-67
2023/09/24 08:38:18;;;;;;;9.88;4.70;;;;;;;12.65;100.00;102434.50;5044044;28;20484;-67
2023/09/24 08:41:12;;;;;;;10.93;4.63;;;;;;;12.69;100.00;102432.94;5055817;28;20047;-67
2023/09/24 08:44:04;;;;;;;11.88;4.80;;;;;;;12.75;100.00;102442.91;5053272;28;20041;-67
2023/09/24 08:46:52;;;;;;;11.07;4.30;;;;;;;12.83;100.00;102436.22;5040576;28;20412;-67
2023/09/24 08:49:41;;;;;;;9.43;4.13;;;;;;;12.93;100.00;102438.31;5042208;28;20041;-67
2023/09/24 08:52:30;;;;;;;8.85;4.10;;;;;;;12.94;100.00;102439.97;5048384;28;20064;-68
2023/09/24 08:55:18;;;;;;;11.57;4.72;;;;;;;12.99;100.00;102437.38;5018546;28;20041;-66
2023/09/24 08:58:07;;;;;;;9.10;4.10;;;;;;;13.05;100.00;102435.53;5040622;28;20049;-66
2023/09/24 09:00:55;;;;;;;8.57;3.83;;;;;;;13.10;100.00;102438.38;5061326;28;20071;-66
2023/09/24 09:03:43;;;;;;;9.82;4.30;;;;;;;13.14;100.00;102440.38;5060650;28;20052;-67
2023/09/24 09:06:36;;;;;;;10.70;4.38;;;;;;;13.20;100.00;102439.41;5074510;28;20100;-66
2023/09/24 09:09:26;;;;;;;11.75;4.25;;;;;;;13.26;100.00;102447.72;5059607;28;20059;-67
2023/09/24 09:12:26;;;;;;;10.57;4.07;;;;;;;13.34;100.00;102439.13;5077794;28;20049;-66
2023/09/24 09:15:17;;;;;;;8.57;3.83;;;;;;;13.35;100.00;102436.13;5045444;28;20102;-66
2023/09/24 09:18:06;;;;;;;9.07;3.38;;;;;;;13.39;100.00;102448.22;5076343;28;20412;-66
2023/09/24 09:20:59;;;;;;;10.73;4.00;;;;;;;13.43;100.00;102434.91;5034802;28;20043;-67
2023/09/24 09:23:47;;;;;;;10.77;3.33;;;;;;;13.51;100.00;102426.25;5042073;28;20045;-66
2023/09/24 09:26:37;;;;;;;14.00;4.45;;;;;;;13.70;100.00;102426.03;5059588;28;20515;-68
2023/09/24 09:29:27;;;;;;;13.02;3.58;;;;;;;13.66;100.00;102414.72;5076446;28;20040;-67
2023/09/24 09:32:15;;;;;;;10.13;3.00;;;;;;;13.69;100.00;102414.25;5072878;28;20047;-66
2023/09/24 09:35:05;;;;;;;10.52;4.00;;;;;;;13.78;100.00;102411.88;5074743;28;20496;-67
2023/09/24 09:37:53;;;;;;;9.15;3.35;;;;;;;13.76;100.00;102419.56;5045841;28;20127;-66
2023/09/24 09:40:41;;;;;;;9.30;3.40;;;;;;;13.82;100.00;102413.06;5069181;28;20127;-67
2023/09/24 09:43:30;;;;;;;8.13;3.22;;;;;;;13.91;100.00;102408.81;5061262;28;20063;-67
2023/09/24 09:46:20;;;;;;;8.65;2.70;;;;;;;13.96;100.00;102397.09;5045965;28;20370;-67
2023/09/24 09:49:09;;;;;;;6.85;2.55;;;;;;;14.04;100.00;102389.25;5060539;28;20045;-66
2023/09/24 09:52:00;;;;;;;12.30;3.30;;;;;;;14.20;100.00;102389.50;5045827;28;20134;-66
2023/09/24 09:54:51;;;;;;;8.10;3.00;;;;;;;14.15;100.00;102389.41;5042578;28;20055;-67
2023/09/24 09:57:39;;;;;;;9.05;3.50;;;;;;;14.17;100.00;102382.59;5046929;28;20049;-67
2023/09/24 10:00:29;;;;;;;8.68;3.33;;;;;;;14.27;100.00;102370.94;5070743;28;20135;-67
2023/09/24 10:03:17;;;;;;;8.82;3.08;;;;;;;14.27;100.00;102370.94;5086102;28;20178;-67
2023/09/24 10:06:07;;;;;;;10.77;4.40;;;;;;;14.41;100.00;102365.91;5074977;28;20098;-67
2023/09/24 10:08:56;;;;;;;10.13;3.45;;;;;;;14.42;100.00;102360.16;5046233;28;20048;-66
2023/09/24 10:11:49;;;;;;;9.85;3.60;;;;;;;14.45;100.00;102364.28;5059315;28;20055;-67
2023/09/24 10:14:39;;;;;;;8.98;3.58;;;;;;;14.48;100.00;102350.91;5059124;28;20044;-67
2023/09/24 10:17:27;;;;;;;8.75;3.53;;;;;;;14.51;100.00;102356.97;5060200;28;20045;-66
2023/09/24 10:20:18;;;;;;;12.30;3.28;;;;;;;14.58;100.00;102352.97;5056992;28;20240;-67
2023/09/24 10:23:28;;;;;;;7.85;2.92;;;;;;;14.63;100.00;102360.41;5079873;28;20506;-66
2023/09/24 10:26:46;;;;;;;9.25;3.20;;;;;;;14.68;100.00;102349.50;5070380;28;20064;-67
2023/09/24 10:29:50;;;;;;;9.52;2.88;;;;;;;14.68;100.00;102349.50;5060646;28;20097;-67
2023/09/24 10:32:45;;;;;;;7.28;3.10;;;;;;;14.81;100.00;102351.81;5073403;28;20048;-67
2023/09/24 10:35:33;;;;;;;9.43;3.33;;;;;;;14.89;100.00;102351.38;5058724;28;20045;-67
2023/09/24 10:38:21;;;;;;;7.45;3.00;;;;;;;14.93;100.00;102356.31;5058580;28;20424;-67
2023/09/24 10:41:10;;;;;;;8.23;2.88;;;;;;;14.96;100.00;102355.81;5074904;28;20045;-67
2023/09/24 10:44:22;;;;;;;7.65;3.13;;;;;;;15.01;100.00;102348.47;5074561;28;20137;-67
2023/09/24 10:47:29;;;;;;;12.02;4.25;;;;;;;15.10;100.00;102346.91;5074875;28;20508;-66
2023/09/24 10:50:18;;;;;;;8.93;3.05;;;;;;;15.11;100.00;102344.97;5074789;28;20044;-67
2023/09/24 10:53:06;;;;;;;7.65;3.20;;;;;;;15.16;100.00;102339.53;5072264;28;20574;-67
2023/09/24 10:55:54;;;;;;;5.82;2.60;;;;;;;15.18;100.00;102351.09;5061004;28;20044;-67
2023/09/24 10:58:58;;;;;;;10.00;3.17;;;;;;;15.22;100.00;102348.63;5052775;28;20036;-67
2023/09/24 11:01:46;;;;;;;7.03;3.03;;;;;;;15.29;100.00;102343.75;5062399;28;20097;-66
2023/09/24 11:04:34;;;;;;;9.88;4.30;;;;;;;15.39;100.00;102348.47;5093692;28;20043;-66
2023/09/24 11:07:22;;;;;;;11.55;3.22;;;;;;;15.43;100.00;102349.63;5050429;28;20047;-67
2023/09/24 11:10:10;;;;;;;7.32;2.72;;;;;;;15.45;100.00;102347.44;5074179;28;20404;-66
2023/09/24 11:13:02;;;;;;;6.38;2.65;;;;;;;15.44;99.43;102352.13;5032452;28;20370;-67
2023/09/24 11:15:50;;;;;;;9.27;2.60;;;;;;;15.47;96.50;102351.59;5026097;28;20052;-67
2023/09/24 11:18:47;;;;;;;6.65;2.75;;;;;;;15.50;95.20;102350.22;5058491;28;20198;-66
2023/09/24 11:21:36;;;;;;;7.47;2.50;;;;;;;15.50;95.36;102350.22;5070400;28;20217;-67
2023/09/24 11:24:25;;;;;;;4.75;2.30;;;;;;;15.53;98.42;102346.94;4701765;28;10000187;-67
2023/09/24 11:27:13;;;;;;;6.53;2.60;;;;;;;15.58;100.00;102346.16;5062775;28;20072;-68
2023/09/24 11:30:02;;;;;;;8.98;3.40;;;;;;;15.60;100.00;102339.28;5070879;28;20053;-68
2023/09/24 11:32:52;;;;;;;6.97;2.65;;;;;;;15.67;99.09;102337.16;5036102;28;20057;-68
2023/09/24 11:35:41;;;;;;;7.13;2.45;;;;;;;15.72;98.10;102345.44;5052589;28;20044;-67
2023/09/24 11:38:31;;;;;;;8.18;2.95;;;;;;;15.77;94.79;102342.72;5051612;28;20052;-67
2023/09/24 11:41:19;;;;;;;7.45;2.72;;;;;;;15.84;92.66;102349.94;5072105;28;20056;-67
2023/09/24 11:44:07;;;;;;;6.57;2.45;;;;;;;15.86;90.59;102345.81;5053236;28;20048;-67
2023/09/24 11:46:55;;;;;;;7.10;2.17;;;;;;;15.95;86.01;102337.91;5034518;28;20174;-67
2023/09/24 11:49:43;;;;;;;8.68;2.60;;;;;;;16.00;87.46;102332.44;5058115;28;20063;-67
2023/09/24 11:52:32;;;;;;;7.32;2.50;;;;;;;16.02;89.71;102330.25;5051388;28;20502;-67
2023/09/24 11:55:20;;;;;;;8.65;2.53;;;;;;;16.07;90.12;102324.75;5068103;28;20075;-66
2023/09/24 11:58:10;;;;;;;7.82;2.70;;;;;;;16.12;85.59;102323.94;5049472;28;20045;-67
2023/09/24 12:00:58;;;;;;;9.15;3.25;;;;;;;16.19;92.36;102322.59;5069995;28;20526;-67
2023/09/24 12:03:47;;;;;;;9.00;3.35;;;;;;;16.29;97.55;102323.75;5061256;28;20040;-67
2023/09/24 12:06:36;;;;;;;7.13;3.00;;;;;;;16.28;92.64;102324.81;5053583;28;20240;-67
2023/09/24 12:09:24;;;;;;;7.97;2.90;;;;;;;16.30;93.54;102322.63;5072191;28;20072;-66
2023/09/24 12:12:12;;;;;;;8.18;2.75;;;;;;;16.31;89.66;102324.31;5071643;28;20044;-66
2023/09/24 12:15:01;;;;;;;10.20;3.45;;;;;;;16.32;90.30;102323.19;5072025;28;20044;-66
2023/09/24 12:17:54;;;;;;;6.40;2.88;;;;;;;16.37;93.35;102314.97;5036257;28;20536;-67
2023/09/24 12:20:43;;;;;;;8.82;3.30;;;;;;;16.37;93.57;102320.47;5044805;28;20487;-66
2023/09/24 12:23:31;;;;;;;7.93;3.25;;;;;;;16.32;89.39;102318.50;5057590;28;20493;-66
2023/09/24 12:26:19;;;;;;;5.70;2.67;;;;;;;16.32;83.71;102317.69;5069902;28;20045;-66
2023/09/24 12:29:07;;;;;;;8.57;3.50;;;;;;;16.46;95.12;102302.31;5072091;28;20076;-66
2023/09/24 12:31:56;;;;;;;6.25;2.92;;;;;;;16.48;92.65;102300.13;5056763;28;20182;-66
2023/09/24 12:34:44;;;;;;;8.68;3.00;;;;;;;16.46;88.81;102299.59;5061943;28;20041;-66
2023/09/24 12:37:34;;;;;;;7.88;2.90;;;;;;;16.46;81.43;102294.06;5071926;28;20048;-66
2023/09/24 12:40:23;;;;;;;8.25;3.03;;;;;;;16.51;80.07;102294.09;5055963;28;20103;-66
2023/09/24 12:43:12;;;;;;;4.93;2.80;;;;;;;16.56;82.00;102296.84;5068075;28;20051;-66
2023/09/24 12:46:07;;;;;;;4.53;2.40;;;;;;;16.63;79.24;102290.25;5052457;28;20040;-67
2023/09/24 12:48:55;;;;;;;7.40;2.78;;;;;;;16.65;80.43;102285.31;5056992;28;20040;-66
2023/09/24 12:51:44;;;;;;;6.55;3.05;;;;;;;16.70;82.68;102285.31;5057236;28;20036;-67
2023/09/24 12:54:32;;;;;;;8.43;2.65;;;;;;;16.75;84.91;102285.31;4705936;28;10000092;-66
2023/09/24 12:57:20;;;;;;;6.80;2.80;;;;;;;16.76;85.89;102284.19;5053078;28;20131;-66
2023/09/24 13:00:12;;;;;;;7.13;3.00;;;;;;;16.77;90.02;102288.63;5039827;28;20048;-67